sensor_id;sensor_type;location;lat;lon;timestamp;pressure;altitude;pressure_sealevel;temperature;humidity
39949;BME280;29070;48.102;-1.652;2024-03-29T00:02:16;98564.22;;;8.14;71.21
39949;BME280;29070;48.102;-1.652;2024-03-29T00:07:17;98565.44;;;8.11;71.95
39949;BME280;29070;48.102;-1.652;2024-03-29T00:12:17;98587.25;;;8.17;72.02
39949;BME280;29070;48.102;-1.652;2024-03-29T00:17:17;98592.94;;;8.14;71.73
39949;BME280;29070;48.102;-1.652;2024-03-29T00:22:18;98596.69;;;8.18;71.84
39949;BME280;29070;48.102;-1.652;2024-03-29T00:27:18;98605.44;;;8.12;72.08
39949;BME280;29070;48.102;-1.652;2024-03-29T00:32:22;98575.13;;;8.11;71.87
39949;BME280;29070;48.102;-1.652;2024-03-29T00:37:23;98589.66;;;8.07;72.38
39949;BME280;29070;48.102;-1.652;2024-03-29T00:42:24;98566.94;;;8.07;72.41
39949;BME280;29070;48.102;-1.652;2024-03-29T00:47:24;98565.34;;;8.06;72.08
39949;BME280;29070;48.102;-1.652;2024-03-29T00:52:25;98546.28;;;8.06;72.16
39949;BME280;29070;48.102;-1.652;2024-03-29T00:57:25;98549.34;;;8.02;72.11
39949;BME280;29070;48.102;-1.652;2024-03-29T01:02:25;98567.78;;;7.96;72.17
39949;BME280;29070;48.102;-1.652;2024-03-29T01:07:25;98553.22;;;7.88;72.38
39949;BME280;29070;48.102;-1.652;2024-03-29T01:12:26;98546.78;;;7.79;72.96
39949;BME280;29070;48.102;-1.652;2024-03-29T01:17:26;98536.47;;;7.72;73.09
39949;BME280;29070;48.102;-1.652;2024-03-29T01:22:26;98548.94;;;7.70;72.90
39949;BME280;29070;48.102;-1.652;2024-03-29T01:27:27;98558.28;;;7.66;73.34
39949;BME280;29070;48.102;-1.652;2024-03-29T01:32:27;98558.06;;;7.68;73.39
39949;BME280;29070;48.102;-1.652;2024-03-29T01:37:27;98570.78;;;7.64;73.45
39949;BME280;29070;48.102;-1.652;2024-03-29T01:42:28;98577.22;;;7.61;73.61
39949;BME280;29070;48.102;-1.652;2024-03-29T01:47:28;98571.22;;;7.61;73.25
39949;BME280;29070;48.102;-1.652;2024-03-29T01:52:29;98572.81;;;7.62;73.27
39949;BME280;29070;48.102;-1.652;2024-03-29T01:57:29;98581.44;;;7.62;73.65
39949;BME280;29070;48.102;-1.652;2024-03-29T02:02:30;98565.78;;;7.62;73.29
39949;BME280;29070;48.102;-1.652;2024-03-29T02:07:30;98568.03;;;7.59;73.57
39949;BME280;29070;48.102;-1.652;2024-03-29T02:12:31;98580.06;;;7.60;73.35
39949;BME280;29070;48.102;-1.652;2024-03-29T02:17:32;98576.56;;;7.54;73.34
39949;BME280;29070;48.102;-1.652;2024-03-29T02:22:36;98557.72;;;7.52;73.69
39949;BME280;29070;48.102;-1.652;2024-03-29T02:27:40;98551.72;;;7.52;73.54
39949;BME280;29070;48.102;-1.652;2024-03-29T02:32:41;98558.16;;;7.49;73.78
39949;BME280;29070;48.102;-1.652;2024-03-29T02:37:41;98553.88;;;7.43;74.13
39949;BME280;29070;48.102;-1.652;2024-03-29T02:42:42;98540.03;;;7.42;74.26
39949;BME280;29070;48.102;-1.652;2024-03-29T02:47:42;98542.31;;;7.39;74.11
39949;BME280;29070;48.102;-1.652;2024-03-29T02:52:43;98551.94;;;7.38;74.37
39949;BME280;29070;48.102;-1.652;2024-03-29T02:57:43;98576.78;;;7.41;73.99
39949;BME280;29070;48.102;-1.652;2024-03-29T03:02:44;98562.69;;;7.42;74.28
39949;BME280;29070;48.102;-1.652;2024-03-29T03:07:44;98555.91;;;7.41;74.31
39949;BME280;29070;48.102;-1.652;2024-03-29T03:13:03;98544.34;;;7.37;74.39
39949;BME280;29070;48.102;-1.652;2024-03-29T03:18:03;98555.69;;;7.31;74.61
39949;BME280;29070;48.102;-1.652;2024-03-29T03:23:04;98554.78;;;7.37;74.84
39949;BME280;29070;48.102;-1.652;2024-03-29T03:28:04;98566.13;;;7.31;75.03
39949;BME280;29070;48.102;-1.652;2024-03-29T03:33:04;98568.50;;;7.32;74.90
39949;BME280;29070;48.102;-1.652;2024-03-29T03:38:05;98562.03;;;7.35;75.06
39949;BME280;29070;48.102;-1.652;2024-03-29T03:43:06;98556.25;;;7.33;75.28
39949;BME280;29070;48.102;-1.652;2024-03-29T03:48:08;98554.19;;;7.35;74.95
39949;BME280;29070;48.102;-1.652;2024-03-29T03:53:09;98561.00;;;7.36;75.38
39949;BME280;29070;48.102;-1.652;2024-03-29T03:58:09;98562.97;;;7.40;75.32
39949;BME280;29070;48.102;-1.652;2024-03-29T04:03:10;98556.69;;;7.41;75.33
39949;BME280;29070;48.102;-1.652;2024-03-29T04:08:10;98554.44;;;7.45;75.43
39949;BME280;29070;48.102;-1.652;2024-03-29T04:13:11;98568.59;;;7.49;75.96
39949;BME280;29070;48.102;-1.652;2024-03-29T04:18:11;98544.09;;;7.50;75.71
39949;BME280;29070;48.102;-1.652;2024-03-29T04:23:11;98540.47;;;7.51;76.15
39949;BME280;29070;48.102;-1.652;2024-03-29T04:28:12;98548.88;;;7.53;76.23
39949;BME280;29070;48.102;-1.652;2024-03-29T04:33:12;98541.03;;;7.53;76.05
39949;BME280;29070;48.102;-1.652;2024-03-29T04:38:12;98546.72;;;7.50;76.05
39949;BME280;29070;48.102;-1.652;2024-03-29T04:43:13;98549.31;;;7.50;76.25
39949;BME280;29070;48.102;-1.652;2024-03-29T04:48:13;98547.72;;;7.49;76.49
39949;BME280;29070;48.102;-1.652;2024-03-29T04:53:13;98539.81;;;7.44;76.58
39949;BME280;29070;48.102;-1.652;2024-03-29T04:58:14;98560.69;;;7.44;76.72
39949;BME280;29070;48.102;-1.652;2024-03-29T05:03:16;98562.81;;;7.47;76.86
39949;BME280;29070;48.102;-1.652;2024-03-29T05:08:17;98572.25;;;7.48;76.94
39949;BME280;29070;48.102;-1.652;2024-03-29T05:13:19;98567.03;;;7.48;77.08
39949;BME280;29070;48.102;-1.652;2024-03-29T05:18:22;98566.59;;;7.51;77.07
39949;BME280;29070;48.102;-1.652;2024-03-29T05:23:22;98573.38;;;7.52;76.88
39949;BME280;29070;48.102;-1.652;2024-03-29T05:28:23;98587.00;;;7.54;77.16
39949;BME280;29070;48.102;-1.652;2024-03-29T05:33:23;98599.03;;;7.55;77.31
39949;BME280;29070;48.102;-1.652;2024-03-29T05:38:23;98605.81;;;7.56;77.54
39949;BME280;29070;48.102;-1.652;2024-03-29T05:43:24;98617.88;;;7.57;77.19
39949;BME280;29070;48.102;-1.652;2024-03-29T05:48:24;98615.38;;;7.62;77.76
39949;BME280;29070;48.102;-1.652;2024-03-29T05:53:24;98616.94;;;7.63;77.68
39949;BME280;29070;48.102;-1.652;2024-03-29T05:58:25;98613.66;;;7.68;77.71
39949;BME280;29070;48.102;-1.652;2024-03-29T06:03:25;98624.44;;;7.72;77.69
39949;BME280;29070;48.102;-1.652;2024-03-29T06:08:25;98639.19;;;7.78;78.08
39949;BME280;29070;48.102;-1.652;2024-03-29T06:13:27;98638.31;;;7.84;77.97
39949;BME280;29070;48.102;-1.652;2024-03-29T06:18:50;98643.19;;;7.92;77.95
39949;BME280;29070;48.102;-1.652;2024-03-29T06:23:50;98652.16;;;7.96;78.40
39949;BME280;29070;48.102;-1.652;2024-03-29T06:28:50;98667.72;;;8.03;77.99
39949;BME280;29070;48.102;-1.652;2024-03-29T06:33:51;98639.16;;;8.13;78.50
39949;BME280;29070;48.102;-1.652;2024-03-29T06:38:54;98646.09;;;8.19;78.34
39949;BME280;29070;48.102;-1.652;2024-03-29T06:43:54;98663.47;;;8.26;78.18
39949;BME280;29070;48.102;-1.652;2024-03-29T06:48:55;98660.28;;;8.35;78.53
39949;BME280;29070;48.102;-1.652;2024-03-29T06:53:55;98692.44;;;8.48;78.63
39949;BME280;29070;48.102;-1.652;2024-03-29T06:58:55;98709.09;;;8.70;78.42
39949;BME280;29070;48.102;-1.652;2024-03-29T07:03:56;98757.38;;;8.91;78.20
39949;BME280;29070;48.102;-1.652;2024-03-29T07:08:57;98784.69;;;8.72;78.85
39949;BME280;29070;48.102;-1.652;2024-03-29T07:13:57;98723.56;;;8.49;78.59
39949;BME280;29070;48.102;-1.652;2024-03-29T07:18:57;98706.63;;;8.52;78.43
39949;BME280;29070;48.102;-1.652;2024-03-29T07:23:57;98718.19;;;8.68;78.37
39949;BME280;29070;48.102;-1.652;2024-03-29T07:28:58;98723.38;;;8.80;78.18
39949;BME280;29070;48.102;-1.652;2024-03-29T07:33:58;98720.53;;;8.81;78.29
39949;BME280;29070;48.102;-1.652;2024-03-29T07:39:00;98713.53;;;8.70;78.07
39949;BME280;29070;48.102;-1.652;2024-03-29T07:44:00;98740.13;;;8.67;78.31
39949;BME280;29070;48.102;-1.652;2024-03-29T07:49:03;98719.09;;;8.73;78.27
39949;BME280;29070;48.102;-1.652;2024-03-29T07:54:03;98732.94;;;8.86;78.16
39949;BME280;29070;48.102;-1.652;2024-03-29T07:59:03;98739.56;;;9.05;77.88
39949;BME280;29070;48.102;-1.652;2024-03-29T08:04:04;98769.03;;;9.12;78.37
39949;BME280;29070;48.102;-1.652;2024-03-29T08:09:06;98772.56;;;9.35;78.13
39949;BME280;29070;48.102;-1.652;2024-03-29T08:14:06;98774.81;;;9.60;77.96
39949;BME280;29070;48.102;-1.652;2024-03-29T08:19:08;98778.25;;;9.61;77.93
39949;BME280;29070;48.102;-1.652;2024-03-29T08:24:08;98777.22;;;9.79;78.09
39949;BME280;29070;48.102;-1.652;2024-03-29T08:29:08;98778.41;;;10.05;77.93
39949;BME280;29070;48.102;-1.652;2024-03-29T08:34:09;98795.66;;;10.35;77.72
39949;BME280;29070;48.102;-1.652;2024-03-29T08:39:13;98783.56;;;10.34;77.66
39949;BME280;29070;48.102;-1.652;2024-03-29T08:44:13;98794.88;;;10.34;77.40
39949;BME280;29070;48.102;-1.652;2024-03-29T08:49:14;98806.13;;;10.52;77.65
39949;BME280;29070;48.102;-1.652;2024-03-29T08:54:14;98806.03;;;10.63;77.45
39949;BME280;29070;48.102;-1.652;2024-03-29T08:59:14;98820.44;;;10.61;77.35
39949;BME280;29070;48.102;-1.652;2024-03-29T09:04:16;98803.22;;;10.70;77.16
39949;BME280;29070;48.102;-1.652;2024-03-29T09:09:16;98808.25;;;10.94;77.15
39949;BME280;29070;48.102;-1.652;2024-03-29T09:14:16;98787.38;;;11.31;76.68
39949;BME280;29070;48.102;-1.652;2024-03-29T09:19:17;98818.31;;;11.78;76.64
39949;BME280;29070;48.102;-1.652;2024-03-29T09:24:17;98828.44;;;11.92;76.35
39949;BME280;29070;48.102;-1.652;2024-03-29T09:29:18;98833.81;;;12.02;75.70
39949;BME280;29070;48.102;-1.652;2024-03-29T09:34:20;98849.78;;;11.95;75.34
39949;BME280;29070;48.102;-1.652;2024-03-29T09:39:20;98850.22;;;12.19;75.35
39949;BME280;29070;48.102;-1.652;2024-03-29T09:44:22;98850.00;;;12.64;75.11
39949;BME280;29070;48.102;-1.652;2024-03-29T09:49:24;98861.81;;;13.09;74.69
39949;BME280;29070;48.102;-1.652;2024-03-29T09:54:29;98850.81;;;13.22;73.65
39949;BME280;29070;48.102;-1.652;2024-03-29T09:59:29;98854.09;;;13.60;73.58
39949;BME280;29070;48.102;-1.652;2024-03-29T10:04:31;98858.88;;;13.68;72.81
39949;BME280;29070;48.102;-1.652;2024-03-29T10:09:32;98857.28;;;13.67;72.87
39949;BME280;29070;48.102;-1.652;2024-03-29T10:14:46;98872.94;;;13.21;72.18
39949;BME280;29070;48.102;-1.652;2024-03-29T10:19:49;98878.22;;;12.68;72.77
39949;BME280;29070;48.102;-1.652;2024-03-29T10:24:50;98885.09;;;12.37;72.39
39949;BME280;29070;48.102;-1.652;2024-03-29T10:29:51;98867.97;;;12.72;72.51
39949;BME280;29070;48.102;-1.652;2024-03-29T10:34:52;98888.63;;;12.95;71.97
39949;BME280;29070;48.102;-1.652;2024-03-29T10:39:52;98880.72;;;12.95;71.51
39949;BME280;29070;48.102;-1.652;2024-03-29T10:44:54;98868.66;;;13.10;71.37
39949;BME280;29070;48.102;-1.652;2024-03-29T10:49:56;98883.63;;;13.62;71.10
39949;BME280;29070;48.102;-1.652;2024-03-29T10:54:58;98863.63;;;13.82;70.34
39949;BME280;29070;48.102;-1.652;2024-03-29T11:00:17;98842.00;;;14.05;68.78
39949;BME280;29070;48.102;-1.652;2024-03-29T11:05:21;98849.94;;;14.31;69.33
39949;BME280;29070;48.102;-1.652;2024-03-29T11:10:29;98841.44;;;14.55;68.65
39949;BME280;29070;48.102;-1.652;2024-03-29T11:15:31;98848.81;;;14.83;68.41
39949;BME280;29070;48.102;-1.652;2024-03-29T11:20:31;98853.53;;;14.92;67.92
39949;BME280;29070;48.102;-1.652;2024-03-29T11:25:44;98845.06;;;14.90;66.92
39949;BME280;29070;48.102;-1.652;2024-03-29T11:30:46;98837.09;;;15.10;67.02
39949;BME280;29070;48.102;-1.652;2024-03-29T11:35:47;98837.09;;;15.05;66.91
39949;BME280;29070;48.102;-1.652;2024-03-29T11:41:20;98839.72;;;15.10;62.73
39949;BME280;29070;48.102;-1.652;2024-03-29T11:46:24;98834.91;;;15.28;66.10
39949;BME280;29070;48.102;-1.652;2024-03-29T11:51:25;98843.09;;;15.26;66.18
39949;BME280;29070;48.102;-1.652;2024-03-29T11:56:26;98845.50;;;15.17;65.28
39949;BME280;29070;48.102;-1.652;2024-03-29T12:01:26;98846.22;;;15.38;64.99
39949;BME280;29070;48.102;-1.652;2024-03-29T12:06:29;98850.19;;;15.31;64.74
39949;BME280;29070;48.102;-1.652;2024-03-29T12:11:31;98850.25;;;15.25;64.22
39949;BME280;29070;48.102;-1.652;2024-03-29T12:16:42;98841.84;;;15.13;63.03
39949;BME280;29070;48.102;-1.652;2024-03-29T12:21:42;98852.97;;;14.95;64.22
39949;BME280;29070;48.102;-1.652;2024-03-29T12:26:43;98856.50;;;14.59;63.71
39949;BME280;29070;48.102;-1.652;2024-03-29T12:31:43;98863.13;;;14.26;63.41
39949;BME280;29070;48.102;-1.652;2024-03-29T12:36:46;98872.38;;;14.13;63.75
39949;BME280;29070;48.102;-1.652;2024-03-29T12:41:47;98853.63;;;14.15;63.68
39949;BME280;29070;48.102;-1.652;2024-03-29T12:46:47;98853.06;;;14.64;63.54
39949;BME280;29070;48.102;-1.652;2024-03-29T12:51:48;98859.28;;;15.09;63.03
39949;BME280;29070;48.102;-1.652;2024-03-29T12:56:48;98857.59;;;15.29;62.60
39949;BME280;29070;48.102;-1.652;2024-03-29T13:01:49;98847.78;;;15.34;62.39
39949;BME280;29070;48.102;-1.652;2024-03-29T13:06:49;98838.31;;;15.78;62.19
39949;BME280;29070;48.102;-1.652;2024-03-29T13:11:49;98833.75;;;15.44;61.60
39949;BME280;29070;48.102;-1.652;2024-03-29T13:16:50;98826.94;;;15.33;62.02
39949;BME280;29070;48.102;-1.652;2024-03-29T13:21:50;98832.78;;;15.69;61.01
39949;BME280;29070;48.102;-1.652;2024-03-29T13:26:51;98825.13;;;16.07;60.81
39949;BME280;29070;48.102;-1.652;2024-03-29T13:31:51;98833.13;;;16.31;60.23
39949;BME280;29070;48.102;-1.652;2024-03-29T13:36:51;98831.97;;;16.43;59.95
39949;BME280;29070;48.102;-1.652;2024-03-29T13:41:52;98835.91;;;16.45;59.74
39949;BME280;29070;48.102;-1.652;2024-03-29T13:46:53;98837.44;;;16.51;59.73
39949;BME280;29070;48.102;-1.652;2024-03-29T13:51:53;98851.56;;;16.42;59.09
39949;BME280;29070;48.102;-1.652;2024-03-29T13:56:54;98838.38;;;16.36;58.94
39949;BME280;29070;48.102;-1.652;2024-03-29T14:01:54;98848.41;;;16.39;58.63
39949;BME280;29070;48.102;-1.652;2024-03-29T14:06:54;98842.72;;;16.22;58.32
39949;BME280;29070;48.102;-1.652;2024-03-29T14:11:56;98837.13;;;15.94;58.10
39949;BME280;29070;48.102;-1.652;2024-03-29T14:16:57;98852.09;;;15.70;57.89
39949;BME280;29070;48.102;-1.652;2024-03-29T14:21:58;98846.31;;;15.62;57.84
39949;BME280;29070;48.102;-1.652;2024-03-29T14:26:58;98853.22;;;15.58;57.80
39949;BME280;29070;48.102;-1.652;2024-03-29T14:31:59;98842.63;;;15.63;57.47
39949;BME280;29070;48.102;-1.652;2024-03-29T14:37:01;98859.00;;;15.66;57.54
39949;BME280;29070;48.102;-1.652;2024-03-29T14:42:01;98857.28;;;15.40;57.32
39949;BME280;29070;48.102;-1.652;2024-03-29T14:47:05;98870.22;;;15.47;57.19
39949;BME280;29070;48.102;-1.652;2024-03-29T14:52:06;98862.81;;;15.49;57.24
39949;BME280;29070;48.102;-1.652;2024-03-29T14:57:06;98876.28;;;15.48;57.24
39949;BME280;29070;48.102;-1.652;2024-03-29T15:02:07;98876.13;;;15.23;56.96
39949;BME280;29070;48.102;-1.652;2024-03-29T15:07:07;98876.22;;;15.03;57.20
39949;BME280;29070;48.102;-1.652;2024-03-29T15:12:08;98877.53;;;15.00;57.05
39949;BME280;29070;48.102;-1.652;2024-03-29T15:17:09;98878.34;;;15.01;57.38
39949;BME280;29070;48.102;-1.652;2024-03-29T15:22:09;98876.22;;;15.03;57.31
39949;BME280;29070;48.102;-1.652;2024-03-29T15:27:10;98876.50;;;14.96;56.81
39949;BME280;29070;48.102;-1.652;2024-03-29T15:32:26;98881.03;;;14.75;57.19
39949;BME280;29070;48.102;-1.652;2024-03-29T15:37:32;98882.66;;;14.51;56.86
39949;BME280;29070;48.102;-1.652;2024-03-29T15:42:33;98883.69;;;14.49;57.74
39949;BME280;29070;48.102;-1.652;2024-03-29T15:47:35;98876.56;;;14.55;57.82
39949;BME280;29070;48.102;-1.652;2024-03-29T15:52:36;98890.31;;;14.47;58.15
39949;BME280;29070;48.102;-1.652;2024-03-29T15:57:36;98893.75;;;14.17;58.22
39949;BME280;29070;48.102;-1.652;2024-03-29T16:02:46;98896.09;;;13.98;58.51
39949;BME280;29070;48.102;-1.652;2024-03-29T16:07:47;98890.56;;;14.20;58.30
39949;BME280;29070;48.102;-1.652;2024-03-29T16:12:47;98895.59;;;14.37;57.78
39949;BME280;29070;48.102;-1.652;2024-03-29T16:17:48;98887.66;;;14.42;57.83
39949;BME280;29070;48.102;-1.652;2024-03-29T16:22:48;98895.31;;;14.43;57.60
39949;BME280;29070;48.102;-1.652;2024-03-29T16:27:48;98891.34;;;14.51;57.86
39949;BME280;29070;48.102;-1.652;2024-03-29T16:32:49;98896.38;;;14.37;58.09
39949;BME280;29070;48.102;-1.652;2024-03-29T16:37:49;98887.41;;;14.28;58.20
39949;BME280;29070;48.102;-1.652;2024-03-29T16:42:50;98894.53;;;14.33;58.12
39949;BME280;29070;48.102;-1.652;2024-03-29T16:47:50;98892.94;;;14.37;58.41
39949;BME280;29070;48.102;-1.652;2024-03-29T16:52:51;98890.31;;;14.37;58.62
39949;BME280;29070;48.102;-1.652;2024-03-29T16:57:51;98894.81;;;14.31;58.44
39949;BME280;29070;48.102;-1.652;2024-03-29T17:02:51;98889.53;;;14.26;58.38
39949;BME280;29070;48.102;-1.652;2024-03-29T17:07:53;98905.09;;;14.17;58.46
39949;BME280;29070;48.102;-1.652;2024-03-29T17:12:53;98905.88;;;14.02;58.61
39949;BME280;29070;48.102;-1.652;2024-03-29T17:17:54;98902.94;;;14.04;58.77
39949;BME280;29070;48.102;-1.652;2024-03-29T17:22:54;98906.88;;;13.91;59.09
39949;BME280;29070;48.102;-1.652;2024-03-29T17:27:54;98915.34;;;13.88;59.27
39949;BME280;29070;48.102;-1.652;2024-03-29T17:32:55;98914.81;;;13.81;59.66
39949;BME280;29070;48.102;-1.652;2024-03-29T17:37:56;98925.28;;;13.60;59.86
39949;BME280;29070;48.102;-1.652;2024-03-29T17:42:56;98933.13;;;13.45;60.05
39949;BME280;29070;48.102;-1.652;2024-03-29T17:47:57;98943.38;;;13.41;60.32
39949;BME280;29070;48.102;-1.652;2024-03-29T17:52:57;98950.94;;;13.22;60.59
39949;BME280;29070;48.102;-1.652;2024-03-29T17:57:57;98955.13;;;13.18;60.81
39949;BME280;29070;48.102;-1.652;2024-03-29T18:02:58;98951.88;;;13.06;60.98
39949;BME280;29070;48.102;-1.652;2024-03-29T18:07:58;98959.69;;;12.90;60.80
39949;BME280;29070;48.102;-1.652;2024-03-29T18:12:58;98970.97;;;12.86;60.98
39949;BME280;29070;48.102;-1.652;2024-03-29T18:17:59;98965.59;;;12.70;60.79
39949;BME280;29070;48.102;-1.652;2024-03-29T18:23:00;98962.66;;;12.62;60.72
39949;BME280;29070;48.102;-1.652;2024-03-29T18:28:01;98980.47;;;12.54;60.98
39949;BME280;29070;48.102;-1.652;2024-03-29T18:33:03;98991.97;;;12.43;61.14
39949;BME280;29070;48.102;-1.652;2024-03-29T18:38:03;98996.13;;;12.39;61.22
39949;BME280;29070;48.102;-1.652;2024-03-29T18:43:04;99000.41;;;12.18;61.39
39949;BME280;29070;48.102;-1.652;2024-03-29T18:48:04;99007.44;;;12.12;61.53
39949;BME280;29070;48.102;-1.652;2024-03-29T18:53:06;99019.13;;;11.99;61.75
39949;BME280;29070;48.102;-1.652;2024-03-29T18:58:06;99028.31;;;11.97;61.58
39949;BME280;29070;48.102;-1.652;2024-03-29T19:03:07;99038.44;;;11.88;61.84
39949;BME280;29070;48.102;-1.652;2024-03-29T19:08:07;99057.50;;;11.78;61.93
39949;BME280;29070;48.102;-1.652;2024-03-29T19:13:07;99063.44;;;11.69;62.17
39949;BME280;29070;48.102;-1.652;2024-03-29T19:18:08;99064.97;;;11.64;62.23
39949;BME280;29070;48.102;-1.652;2024-03-29T19:23:09;99072.47;;;11.56;62.39
39949;BME280;29070;48.102;-1.652;2024-03-29T19:28:09;99069.22;;;11.49;62.44
39949;BME280;29070;48.102;-1.652;2024-03-29T19:33:10;99074.22;;;11.50;62.70
39949;BME280;29070;48.102;-1.652;2024-03-29T19:38:10;99064.19;;;11.47;62.85
39949;BME280;29070;48.102;-1.652;2024-03-29T19:43:12;99077.63;;;11.51;62.82
39949;BME280;29070;48.102;-1.652;2024-03-29T19:48:12;99081.22;;;11.44;62.90
39949;BME280;29070;48.102;-1.652;2024-03-29T19:53:13;99079.31;;;11.40;63.14
39949;BME280;29070;48.102;-1.652;2024-03-29T19:58:13;99074.69;;;11.30;63.22
39949;BME280;29070;48.102;-1.652;2024-03-29T20:03:13;99062.00;;;11.22;63.47
39949;BME280;29070;48.102;-1.652;2024-03-29T20:08:15;99059.19;;;11.12;63.55
39949;BME280;29070;48.102;-1.652;2024-03-29T20:13:15;99068.19;;;10.99;63.76
39949;BME280;29070;48.102;-1.652;2024-03-29T20:18:15;99087.78;;;10.91;63.83
39949;BME280;29070;48.102;-1.652;2024-03-29T20:23:16;99080.28;;;10.83;63.82
39949;BME280;29070;48.102;-1.652;2024-03-29T20:28:17;99082.47;;;10.74;64.14
39949;BME280;29070;48.102;-1.652;2024-03-29T20:33:18;99075.56;;;10.68;64.32
39949;BME280;29070;48.102;-1.652;2024-03-29T20:38:19;99076.81;;;10.65;64.73
39949;BME280;29070;48.102;-1.652;2024-03-29T20:43:19;99065.22;;;10.61;64.41
39949;BME280;29070;48.102;-1.652;2024-03-29T20:48:20;99061.84;;;10.49;64.78
39949;BME280;29070;48.102;-1.652;2024-03-29T20:53:20;99057.63;;;10.48;64.95
39949;BME280;29070;48.102;-1.652;2024-03-29T20:58:20;99056.16;;;10.40;65.18
39949;BME280;29070;48.102;-1.652;2024-03-29T21:03:21;99058.13;;;10.33;65.17
39949;BME280;29070;48.102;-1.652;2024-03-29T21:08:40;99059.97;;;10.33;65.28
39949;BME280;29070;48.102;-1.652;2024-03-29T21:13:40;99054.28;;;10.24;65.52
39949;BME280;29070;48.102;-1.652;2024-03-29T21:18:41;99053.38;;;10.18;65.63
39949;BME280;29070;48.102;-1.652;2024-03-29T21:23:41;99053.84;;;10.15;65.76
39949;BME280;29070;48.102;-1.652;2024-03-29T21:28:42;99063.78;;;10.13;66.13
39949;BME280;29070;48.102;-1.652;2024-03-29T21:33:43;99068.44;;;10.11;65.92
39949;BME280;29070;48.102;-1.652;2024-03-29T21:38:43;99078.28;;;10.04;66.29
39949;BME280;29070;48.102;-1.652;2024-03-29T21:43:43;99095.72;;;9.98;66.65
39949;BME280;29070;48.102;-1.652;2024-03-29T21:48:44;99093.78;;;9.93;66.55
39949;BME280;29070;48.102;-1.652;2024-03-29T21:53:44;99096.28;;;9.88;66.83
39949;BME280;29070;48.102;-1.652;2024-03-29T21:58:44;99089.94;;;9.84;67.18
39949;BME280;29070;48.102;-1.652;2024-03-29T22:03:45;99090.94;;;9.83;67.25
39949;BME280;29070;48.102;-1.652;2024-03-29T22:08:45;99101.41;;;9.83;66.96
39949;BME280;29070;48.102;-1.652;2024-03-29T22:13:45;99110.22;;;9.77;67.03
39949;BME280;29070;48.102;-1.652;2024-03-29T22:18:46;99107.94;;;9.69;67.52
39949;BME280;29070;48.102;-1.652;2024-03-29T22:23:46;99110.44;;;9.64;67.45
39949;BME280;29070;48.102;-1.652;2024-03-29T22:28:46;99112.97;;;9.59;67.60
39949;BME280;29070;48.102;-1.652;2024-03-29T22:33:47;99101.31;;;9.54;67.82
39949;BME280;29070;48.102;-1.652;2024-03-29T22:38:47;99105.00;;;9.53;67.78
39949;BME280;29070;48.102;-1.652;2024-03-29T22:43:47;99109.53;;;9.46;67.78
39949;BME280;29070;48.102;-1.652;2024-03-29T22:48:48;99107.38;;;9.43;68.08
39949;BME280;29070;48.102;-1.652;2024-03-29T22:53:49;99114.75;;;9.34;68.29
39949;BME280;29070;48.102;-1.652;2024-03-29T22:58:50;99124.09;;;9.30;68.55
39949;BME280;29070;48.102;-1.652;2024-03-29T23:03:50;99128.28;;;9.31;68.58
39949;BME280;29070;48.102;-1.652;2024-03-29T23:08:50;99134.56;;;9.30;68.70
39949;BME280;29070;48.102;-1.652;2024-03-29T23:13:51;99136.84;;;9.27;68.88
39949;BME280;29070;48.102;-1.652;2024-03-29T23:18:51;99147.31;;;9.27;68.56
39949;BME280;29070;48.102;-1.652;2024-03-29T23:23:51;99138.28;;;9.23;68.78
39949;BME280;29070;48.102;-1.652;2024-03-29T23:28:52;99145.56;;;9.21;69.16
39949;BME280;29070;48.102;-1.652;2024-03-29T23:33:52;99145.44;;;9.15;69.39
39949;BME280;29070;48.102;-1.652;2024-03-29T23:38:53;99157.19;;;9.13;69.57
39949;BME280;29070;48.102;-1.652;2024-03-29T23:43:53;99152.72;;;9.13;69.62
39949;BME280;29070;48.102;-1.652;2024-03-29T23:48:54;99139.88;;;9.12;69.42
39949;BME280;29070;48.102;-1.652;2024-03-29T23:53:54;99144.66;;;9.15;69.44
39949;BME280;29070;48.102;-1.652;2024-03-29T23:58:57;99142.13;;;9.08;69.96
